createdAt,value
2023-03-28T00:01:17.799Z,0.80
2023-03-28T00:03:47.010Z,0.80
2023-03-28T00:06:19.037Z,0.70
2023-03-28T00:08:51.393Z,0.70
2023-03-28T00:11:23.362Z,0.70
2023-03-28T00:13:58.006Z,0.60
2023-03-28T00:16:32.788Z,0.70
2023-03-28T00:19:03.680Z,0.70
2023-03-28T00:21:34.531Z,0.60
2023-03-28T00:24:07.418Z,0.50
2023-03-28T00:26:38.564Z,0.50
2023-03-28T00:29:09.430Z,0.50
2023-03-28T00:31:39.939Z,0.60
2023-03-28T00:34:09.740Z,0.50
2023-03-28T00:36:39.962Z,0.50
2023-03-28T00:39:10.622Z,0.50
2023-03-28T00:41:43.774Z,0.50
2023-03-28T00:44:48.223Z,0.50
2023-03-28T00:47:25.932Z,0.50
2023-03-28T00:49:56.848Z,0.50
2023-03-28T00:52:30.925Z,0.40
2023-03-28T00:55:01.162Z,0.40
2023-03-28T00:57:32.197Z,0.40
2023-03-28T01:00:01.559Z,0.40
2023-03-28T01:02:30.845Z,0.40
2023-03-28T01:05:04.106Z,0.30
2023-03-28T01:07:40.121Z,0.30
2023-03-28T01:10:10.954Z,0.30
2023-03-28T01:12:43.821Z,0.20
2023-03-28T01:15:13.632Z,0.20
2023-03-28T01:17:55.736Z,0.30
2023-03-28T01:20:58.615Z,0.20
2023-03-28T01:24:19.168Z,0.30
2023-03-28T01:26:54.836Z,0.30
2023-03-28T01:30:18.770Z,0.20
2023-03-28T01:33:47.422Z,0.20
2023-03-28T01:37:05.998Z,0.20
2023-03-28T01:40:07.702Z,0.20
2023-03-28T01:42:52.684Z,0.10
2023-03-28T01:45:28.763Z,0.10
2023-03-28T01:48:05.679Z,0.10
2023-03-28T01:50:43.328Z,0.10
2023-03-28T01:53:20.581Z,0.10
2023-03-28T01:55:58.234Z,0.10
2023-03-28T01:58:37.146Z,0.10
2023-03-28T02:01:15.933Z,0.20
2023-03-28T02:03:50.789Z,0.10
2023-03-28T02:06:40.041Z,0.10
2023-03-28T02:09:17.001Z,0.10
2023-03-28T02:12:10.107Z,0.10
2023-03-28T02:14:57.725Z,0.10
2023-03-28T02:17:50.751Z,0.10
2023-03-28T02:20:56.592Z,0.10
2023-03-28T02:23:48.697Z,0.10
2023-03-28T02:26:37.477Z,0.00
2023-03-28T02:29:21.622Z,0.00
2023-03-28T02:32:00.248Z,0.00
2023-03-28T02:34:29.646Z,0.00
2023-03-28T02:37:12.073Z,0.00
2023-03-28T02:39:48.475Z,0.00
2023-03-28T02:42:43.917Z,0.00
2023-03-28T02:45:41.592Z,0.00
2023-03-28T02:48:26.056Z,0.00
2023-03-28T02:51:06.460Z,-0.10
2023-03-28T02:53:44.933Z,0.00
2023-03-28T02:56:22.848Z,-0.10
2023-03-28T02:59:15.052Z,-0.10
2023-03-28T03:01:46.895Z,-0.10
2023-03-28T03:04:17.567Z,-0.10
2023-03-28T03:06:48.585Z,-0.10
2023-03-28T03:09:19.582Z,-0.20
2023-03-28T03:11:48.757Z,-0.10
2023-03-28T03:14:18.129Z,-0.20
2023-03-28T03:16:51.948Z,-0.10
2023-03-28T03:19:22.056Z,-0.20
2023-03-28T03:21:51.279Z,-0.10
2023-03-28T03:24:20.517Z,-0.20
2023-03-28T03:26:49.792Z,-0.20
2023-03-28T03:29:19.110Z,-0.20
2023-03-28T03:31:49.765Z,-0.10
2023-03-28T03:34:37.483Z,-0.20
2023-03-28T03:37:06.839Z,-0.10
2023-03-28T03:39:37.033Z,-0.20
2023-03-28T03:42:06.542Z,-0.20
2023-03-28T03:44:36.045Z,-0.10
2023-03-28T03:47:07.413Z,-0.10
2023-03-28T03:49:36.637Z,-0.10
2023-03-28T03:52:06.621Z,-0.10
2023-03-28T03:54:38.306Z,0.00
2023-03-28T03:57:08.490Z,0.00
2023-03-28T03:59:37.721Z,-0.10
2023-03-28T04:02:08.851Z,0.00
2023-03-28T04:04:50.256Z,0.10
2023-03-28T04:07:26.614Z,0.10
2023-03-28T04:09:58.724Z,0.00
2023-03-28T04:12:30.405Z,0.10
2023-03-28T04:14:59.701Z,0.10
2023-03-28T04:17:41.693Z,0.10
2023-03-28T04:20:21.186Z,0.10
2023-03-28T04:23:10.076Z,0.10
2023-03-28T04:25:42.121Z,0.00
2023-03-28T04:28:17.348Z,0.10
2023-03-28T04:31:12.826Z,0.10
2023-03-28T04:34:02.000Z,0.00
2023-03-28T04:36:33.542Z,0.00
2023-03-28T04:39:06.022Z,0.00
2023-03-28T04:41:55.860Z,0.10
2023-03-28T04:44:47.563Z,0.20
2023-03-28T04:47:17.072Z,0.20
2023-03-28T04:49:49.044Z,0.20
2023-03-28T04:52:18.600Z,0.30
2023-03-28T04:54:49.660Z,0.30
2023-03-28T04:57:22.314Z,0.40
2023-03-28T04:59:56.318Z,0.40
2023-03-28T05:02:44.656Z,0.50
2023-03-28T05:05:18.753Z,0.60
2023-03-28T05:07:48.077Z,0.80
2023-03-28T05:10:21.498Z,0.90
2023-03-28T05:12:52.691Z,1.00
2023-03-28T05:15:23.493Z,1.10
2023-03-28T05:18:22.074Z,1.20
2023-03-28T05:20:53.112Z,1.50
2023-03-28T05:23:22.692Z,1.60
2023-03-28T05:25:55.025Z,1.70
2023-03-28T05:28:24.786Z,2.00
2023-03-28T05:30:54.947Z,2.30
2023-03-28T05:35:56.172Z,3.80
2023-03-28T05:38:25.678Z,5.70
2023-03-28T05:40:59.417Z,6.70
2023-03-28T05:43:28.764Z,6.60
2023-03-28T05:45:58.483Z,6.10
2023-03-28T05:48:35.417Z,5.50
2023-03-28T05:51:06.560Z,4.80
2023-03-28T05:53:37.092Z,4.40
2023-03-28T05:56:07.697Z,4.20
2023-03-28T05:58:37.265Z,4.00
2023-03-28T06:01:07.076Z,3.80
2023-03-28T06:03:40.536Z,3.60
2023-03-28T06:06:11.914Z,3.50
2023-03-28T06:08:41.088Z,3.40
2023-03-28T06:11:11.682Z,3.30
2023-03-28T06:14:00.999Z,3.30
2023-03-28T06:16:31.368Z,3.20
2023-03-28T06:19:16.660Z,3.10
2023-03-28T06:21:53.988Z,3.10
2023-03-28T06:24:23.936Z,2.90
2023-03-28T06:26:53.230Z,2.80
2023-03-28T06:29:25.486Z,2.80
2023-03-28T06:32:02.738Z,2.70
2023-03-28T06:34:32.494Z,2.60
2023-03-28T06:37:05.809Z,2.60
2023-03-28T06:39:54.582Z,2.60
2023-03-28T06:42:23.926Z,2.50
2023-03-28T06:45:16.230Z,2.40
2023-03-28T06:47:52.395Z,2.40
2023-03-28T06:50:28.119Z,2.30
2023-03-28T06:53:02.532Z,2.40
2023-03-28T06:55:31.965Z,2.30
2023-03-28T06:58:01.707Z,2.30
2023-03-28T07:00:53.909Z,2.40
2023-03-28T07:03:38.309Z,2.40
2023-03-28T07:06:10.240Z,2.40
2023-03-28T07:08:41.220Z,2.40
2023-03-28T07:11:10.723Z,2.40
2023-03-28T07:13:41.724Z,2.40
2023-03-28T07:16:15.336Z,2.40
2023-03-28T07:18:45.179Z,2.50
2023-03-28T07:21:22.672Z,2.50
2023-03-28T07:23:53.605Z,2.40
2023-03-28T07:26:28.354Z,2.60
2023-03-28T07:28:58.135Z,2.60
2023-03-28T07:31:28.654Z,2.70
2023-03-28T07:34:00.943Z,2.70
2023-03-28T07:36:30.769Z,2.70
2023-03-28T07:39:10.545Z,2.70
2023-03-28T07:41:40.841Z,2.80
2023-03-28T07:44:10.154Z,2.70
2023-03-28T07:46:40.072Z,2.70
2023-03-28T07:49:09.444Z,2.70
2023-03-28T07:51:39.103Z,2.70
2023-03-28T07:54:17.941Z,2.70
2023-03-28T07:56:49.552Z,2.60
2023-03-28T07:59:42.472Z,2.60
2023-03-28T08:02:13.710Z,2.60
2023-03-28T08:04:43.344Z,2.70
2023-03-28T08:07:13.730Z,2.80
2023-03-28T08:09:47.497Z,2.90
2023-03-28T08:12:22.655Z,3.00
2023-03-28T08:14:52.338Z,3.10
2023-03-28T08:17:25.089Z,3.20
2023-03-28T08:19:55.303Z,3.40
2023-03-28T08:22:30.848Z,3.50
2023-03-28T08:25:33.995Z,3.70
2023-03-28T08:28:04.301Z,3.90
2023-03-28T08:30:34.078Z,4.40
2023-03-28T08:33:06.581Z,4.70
2023-03-28T08:35:36.120Z,4.90
2023-03-28T08:38:13.520Z,5.10
2023-03-28T08:40:50.538Z,5.30
2023-03-28T08:43:49.455Z,5.50
2023-03-28T08:46:23.365Z,5.90
2023-03-28T08:48:54.925Z,6.10
2023-03-28T08:51:28.842Z,6.40
2023-03-28T08:54:09.652Z,6.60
2023-03-28T08:56:44.317Z,6.80
2023-03-28T08:59:17.055Z,6.90
2023-03-28T09:01:47.476Z,7.30
2023-03-28T09:04:29.828Z,7.80
2023-03-28T09:07:20.339Z,8.00
2023-03-28T09:09:56.245Z,7.80
2023-03-28T09:12:52.684Z,8.00
2023-03-28T09:15:31.780Z,8.30
2023-03-28T09:18:37.481Z,8.30
2023-03-28T09:21:15.100Z,8.40
2023-03-28T09:23:59.859Z,8.50
2023-03-28T09:26:34.076Z,8.60
2023-03-28T09:29:13.370Z,8.50
2023-03-28T09:31:46.880Z,8.20
2023-03-28T09:34:23.313Z,7.40
2023-03-28T09:36:57.686Z,6.70
2023-03-28T09:39:37.085Z,6.10
2023-03-28T09:42:14.575Z,5.40
2023-03-28T09:44:58.957Z,5.20
2023-03-28T09:47:51.300Z,5.00
2023-03-28T09:50:23.269Z,4.80
2023-03-28T09:52:59.122Z,4.70
2023-03-28T09:55:30.762Z,4.50
2023-03-28T09:58:02.784Z,4.20
2023-03-28T10:00:38.598Z,4.30
2023-03-28T10:03:35.098Z,4.40
2023-03-28T10:06:21.327Z,4.60
2023-03-28T10:08:51.797Z,4.60
2023-03-28T10:11:30.719Z,4.70
2023-03-28T10:14:00.186Z,4.50
2023-03-28T10:16:32.925Z,4.30
2023-03-28T10:19:12.032Z,4.20
2023-03-28T10:21:50.279Z,4.10
2023-03-28T10:24:24.377Z,4.10
2023-03-28T10:27:01.178Z,3.70
2023-03-28T10:29:30.746Z,3.50
2023-03-28T10:32:01.868Z,3.50
2023-03-28T10:34:37.295Z,3.70
2023-03-28T10:37:29.379Z,3.70
2023-03-28T10:40:30.241Z,3.70
2023-03-28T10:43:15.997Z,3.60
2023-03-28T10:46:14.779Z,3.40
2023-03-28T10:49:17.213Z,3.50
2023-03-28T10:51:53.546Z,3.30
2023-03-28T10:54:43.272Z,3.30
2023-03-28T10:57:30.887Z,3.30
2023-03-28T11:00:10.653Z,3.30
2023-03-28T11:02:57.928Z,3.10
2023-03-28T11:05:52.150Z,3.10
2023-03-28T11:08:40.861Z,3.00
2023-03-28T11:11:37.001Z,3.00
2023-03-28T11:14:21.879Z,3.10
2023-03-28T11:17:00.470Z,3.30
2023-03-28T11:20:18.047Z,3.50
2023-03-28T11:23:19.952Z,3.50
2023-03-28T11:26:14.774Z,3.70
2023-03-28T11:29:40.216Z,3.80
2023-03-28T11:32:18.850Z,3.80
2023-03-28T11:34:59.746Z,3.80
2023-03-28T11:37:34.328Z,3.90
2023-03-28T11:40:12.083Z,3.90
2023-03-28T11:42:57.600Z,3.90
2023-03-28T11:45:46.817Z,3.80
2023-03-28T11:48:27.007Z,3.70
2023-03-28T11:51:05.314Z,3.60
2023-03-28T11:54:03.071Z,3.70
2023-03-28T11:56:48.701Z,3.70
2023-03-28T11:59:32.068Z,3.60
2023-03-28T12:02:09.228Z,3.60
2023-03-28T12:04:47.573Z,3.60
2023-03-28T12:07:22.745Z,3.70
2023-03-28T12:10:04.748Z,3.80
2023-03-28T12:12:44.223Z,3.90
2023-03-28T12:15:17.910Z,4.00
2023-03-28T12:17:59.110Z,4.20
2023-03-28T12:20:33.584Z,4.30
2023-03-28T12:23:13.002Z,4.40
2023-03-28T12:26:24.303Z,4.50
2023-03-28T12:29:01.018Z,4.50
2023-03-28T12:31:35.835Z,4.60
2023-03-28T12:34:19.234Z,4.40
2023-03-28T12:37:12.232Z,4.30
2023-03-28T12:39:49.474Z,4.10
2023-03-28T12:42:26.514Z,4.10
2023-03-28T12:45:01.811Z,4.00
2023-03-28T12:47:36.845Z,4.20
2023-03-28T12:50:09.688Z,4.30
2023-03-28T12:52:44.114Z,4.50
2023-03-28T12:55:46.697Z,4.60
2023-03-28T12:58:26.320Z,4.80
2023-03-28T13:01:19.853Z,5.10
2023-03-28T13:04:15.590Z,5.20
2023-03-28T13:07:08.725Z,5.30
2023-03-28T13:09:49.742Z,5.50
2023-03-28T13:12:35.283Z,5.60
2023-03-28T13:15:25.667Z,5.60
2023-03-28T13:18:34.633Z,4.90
2023-03-28T13:21:07.456Z,5.00
2023-03-28T13:23:47.153Z,5.10
2023-03-28T13:26:16.408Z,4.90
2023-03-28T13:28:49.021Z,4.80
2023-03-28T13:31:23.618Z,4.80
2023-03-28T13:34:00.221Z,4.80
2023-03-28T13:36:34.064Z,5.00
2023-03-28T13:39:20.904Z,5.10
2023-03-28T13:42:03.038Z,5.20
2023-03-28T13:44:42.255Z,5.40
2023-03-28T13:47:20.511Z,5.60
2023-03-28T13:49:56.604Z,5.80
2023-03-28T13:52:27.170Z,5.30
2023-03-28T13:55:02.745Z,5.10
2023-03-28T13:57:32.311Z,4.90
2023-03-28T14:00:05.131Z,4.90
2023-03-28T14:02:45.228Z,4.70
2023-03-28T14:05:23.045Z,4.70
2023-03-28T14:07:54.638Z,4.60
2023-03-28T14:10:30.555Z,4.50
2023-03-28T14:13:03.766Z,4.20
2023-03-28T14:15:36.704Z,4.10
2023-03-28T14:18:06.473Z,4.10
2023-03-28T14:20:39.641Z,4.40
2023-03-28T14:23:10.094Z,4.40
2023-03-28T14:25:40.252Z,4.30
2023-03-28T14:28:10.395Z,4.50
2023-03-28T14:30:42.577Z,4.60
2023-03-28T14:33:22.699Z,4.60
2023-03-28T14:36:02.058Z,4.60
2023-03-28T14:38:34.887Z,4.50
2023-03-28T14:41:10.702Z,4.50
2023-03-28T14:43:40.167Z,4.40
2023-03-28T14:46:11.573Z,4.10
2023-03-28T14:48:42.568Z,4.10
2023-03-28T14:51:15.820Z,4.10
2023-03-28T14:53:47.906Z,4.20
2023-03-28T14:56:24.211Z,4.40
2023-03-28T14:58:56.518Z,4.40
2023-03-28T15:01:27.360Z,4.30
2023-03-28T15:04:01.757Z,4.40
2023-03-28T15:06:35.464Z,4.40
2023-03-28T15:09:12.521Z,4.20
2023-03-28T15:11:45.078Z,4.10
2023-03-28T15:14:17.987Z,4.00
2023-03-28T15:16:49.031Z,3.90
2023-03-28T15:19:27.479Z,3.90
2023-03-28T15:22:02.625Z,3.90
2023-03-28T15:24:32.951Z,4.00
2023-03-28T15:27:04.046Z,4.00
2023-03-28T15:29:37.753Z,3.80
2023-03-28T15:32:14.361Z,3.60
2023-03-28T15:34:46.466Z,3.50
2023-03-28T15:37:26.116Z,3.40
2023-03-28T15:39:56.364Z,3.30
2023-03-28T15:42:37.473Z,3.20
2023-03-28T15:45:24.857Z,3.10
2023-03-28T15:47:56.061Z,3.20
2023-03-28T15:50:33.400Z,3.30
2023-03-28T15:53:07.580Z,3.30
2023-03-28T15:55:37.570Z,3.20
2023-03-28T15:58:07.365Z,3.00
2023-03-28T16:00:42.521Z,2.80
2023-03-28T16:03:34.735Z,2.70
2023-03-28T16:06:23.081Z,2.60
2023-03-28T16:09:19.109Z,2.40
2023-03-28T16:11:52.028Z,2.50
2023-03-28T16:14:43.375Z,2.50
2023-03-28T16:17:43.445Z,2.50
2023-03-28T16:20:36.450Z,2.30
2023-03-28T16:23:08.331Z,2.20
2023-03-28T16:25:39.103Z,2.20
2023-03-28T16:28:08.820Z,2.20
2023-03-28T16:30:41.358Z,2.20
2023-03-28T16:33:10.859Z,2.20
2023-03-28T16:35:40.167Z,2.20
2023-03-28T16:38:11.826Z,2.20
2023-03-28T16:40:43.240Z,2.20
2023-03-28T16:43:15.477Z,2.20
2023-03-28T16:45:48.483Z,2.10
2023-03-28T16:48:17.818Z,2.00
2023-03-28T16:50:59.064Z,1.80
2023-03-28T16:53:28.369Z,1.80
2023-03-28T16:55:59.339Z,1.80
2023-03-28T16:58:29.830Z,1.80
2023-03-28T17:01:01.005Z,1.70
2023-03-28T17:03:30.878Z,1.60
2023-03-28T17:06:04.333Z,1.60
2023-03-28T17:08:33.893Z,1.70
2023-03-28T17:11:07.036Z,1.70
2023-03-28T17:13:37.311Z,1.70
2023-03-28T17:16:08.432Z,1.60
2023-03-28T17:18:38.523Z,1.60
2023-03-28T17:21:10.517Z,1.60
2023-03-28T17:23:41.579Z,1.60
2023-03-28T17:26:14.002Z,1.50
2023-03-28T17:28:47.991Z,1.60
2023-03-28T17:31:19.664Z,1.50
2023-03-28T17:33:50.787Z,1.40
2023-03-28T17:36:22.812Z,1.40
2023-03-28T17:38:54.670Z,1.40
2023-03-28T17:41:29.731Z,1.30
2023-03-28T17:44:00.608Z,1.20
2023-03-28T17:46:31.106Z,1.20
2023-03-28T17:49:02.146Z,1.20
2023-03-28T17:51:32.521Z,1.20
2023-03-28T17:54:03.972Z,1.10
2023-03-28T17:56:38.295Z,1.10
2023-03-28T17:59:08.619Z,1.20
2023-03-28T18:01:40.252Z,1.20
2023-03-28T18:04:11.021Z,1.10
2023-03-28T18:07:16.236Z,1.00
2023-03-28T18:09:48.579Z,1.00
2023-03-28T18:12:26.506Z,0.90
2023-03-28T18:15:00.349Z,0.90
2023-03-28T18:17:33.900Z,0.90
2023-03-28T18:20:06.764Z,0.90
2023-03-28T18:22:39.286Z,0.90
2023-03-28T18:25:11.979Z,0.80
2023-03-28T18:27:45.021Z,0.80
2023-03-28T18:30:16.394Z,0.80
2023-03-28T18:32:48.142Z,0.70
2023-03-28T18:35:22.553Z,0.60
2023-03-28T18:37:58.252Z,0.60
2023-03-28T18:40:29.589Z,0.60
2023-03-28T18:43:02.951Z,0.60
2023-03-28T18:45:35.398Z,0.60
2023-03-28T18:48:10.990Z,0.60
2023-03-28T18:50:43.028Z,0.50
2023-03-28T18:53:15.763Z,0.50
2023-03-28T18:55:48.270Z,0.50
2023-03-28T18:58:20.712Z,0.40
2023-03-28T19:01:01.934Z,0.40
2023-03-28T19:03:40.593Z,0.40
2023-03-28T19:06:18.554Z,0.50
2023-03-28T19:08:49.790Z,0.50
2023-03-28T19:11:21.118Z,0.50
2023-03-28T19:13:58.241Z,0.60
2023-03-28T19:16:29.984Z,0.70
2023-03-28T19:19:01.500Z,0.70
2023-03-28T19:21:32.975Z,0.70
2023-03-28T19:24:04.924Z,0.70
2023-03-28T19:26:36.574Z,0.70
2023-03-28T19:29:10.531Z,0.70
2023-03-28T19:31:43.614Z,0.80
2023-03-28T19:34:19.504Z,0.80
2023-03-28T19:36:52.342Z,0.70
2023-03-28T19:39:24.825Z,0.80
2023-03-28T19:41:58.338Z,0.80
2023-03-28T19:44:40.988Z,0.80
2023-03-28T19:47:12.371Z,0.70
2023-03-28T19:49:43.792Z,0.70
2023-03-28T19:52:14.806Z,0.70
2023-03-28T19:54:46.245Z,0.60
2023-03-28T19:57:19.343Z,0.70
2023-03-28T19:59:53.192Z,0.80
2023-03-28T20:02:27.103Z,0.70
2023-03-28T20:04:58.903Z,0.70
2023-03-28T20:07:30.048Z,0.70
2023-03-28T20:10:03.604Z,0.80
2023-03-28T20:12:35.087Z,0.80
2023-03-28T20:15:08.743Z,0.80
2023-03-28T20:17:39.851Z,0.80
2023-03-28T20:20:12.504Z,0.90
2023-03-28T20:22:42.733Z,0.90
2023-03-28T20:25:15.468Z,0.90
2023-03-28T20:27:48.282Z,0.90
2023-03-28T20:30:20.981Z,0.90
2023-03-28T20:32:51.545Z,0.80
2023-03-28T20:35:21.982Z,0.80
2023-03-28T20:37:52.649Z,0.80
2023-03-28T20:40:23.766Z,0.70
2023-03-28T20:42:54.109Z,0.80
2023-03-28T20:45:25.562Z,0.80
2023-03-28T20:47:57.667Z,0.80
2023-03-28T20:50:34.263Z,0.90
2023-03-28T20:53:04.150Z,0.90
2023-03-28T20:55:34.201Z,0.90
2023-03-28T20:58:03.710Z,0.90
2023-03-28T21:00:36.025Z,0.90
2023-03-28T21:03:06.086Z,1.00
2023-03-28T21:05:35.417Z,0.90
2023-03-28T21:08:08.429Z,0.90
2023-03-28T21:10:39.739Z,0.90
2023-03-28T21:13:09.118Z,0.90
2023-03-28T21:15:39.734Z,1.00
2023-03-28T21:18:09.866Z,1.00
2023-03-28T21:20:39.202Z,1.10
2023-03-28T21:23:08.442Z,1.10
2023-03-28T21:25:38.115Z,1.00
2023-03-28T21:28:07.604Z,1.00
2023-03-28T21:30:37.432Z,1.00
2023-03-28T21:33:08.424Z,1.00
2023-03-28T21:35:38.853Z,1.00
2023-03-28T21:38:08.185Z,0.90
2023-03-28T21:40:37.462Z,0.90
2023-03-28T21:43:06.875Z,0.90
2023-03-28T21:45:36.401Z,0.90
2023-03-28T21:48:06.390Z,0.80
2023-03-28T21:50:39.095Z,0.80
2023-03-28T21:53:09.940Z,0.80
2023-03-28T21:55:39.686Z,0.80
2023-03-28T21:58:08.940Z,0.80
2023-03-28T22:00:38.737Z,0.70
2023-03-28T22:03:08.190Z,0.70
2023-03-28T22:05:43.017Z,0.70
2023-03-28T22:08:13.557Z,0.70
2023-03-28T22:10:47.680Z,0.60
2023-03-28T22:13:17.321Z,0.60
2023-03-28T22:15:46.681Z,0.60
2023-03-28T22:18:16.676Z,0.50
2023-03-28T22:20:53.490Z,0.50
2023-03-28T22:23:23.818Z,0.50
2023-03-28T22:25:53.776Z,0.60
2023-03-28T22:28:24.961Z,0.60
2023-03-28T22:30:56.401Z,0.50
2023-03-28T22:33:25.935Z,0.50
2023-03-28T22:35:58.090Z,0.50
2023-03-28T22:38:27.501Z,0.40
2023-03-28T22:40:56.951Z,0.40
2023-03-28T22:43:29.182Z,0.40
2023-03-28T22:45:58.517Z,0.30
2023-03-28T22:48:30.384Z,0.30
2023-03-28T22:51:02.065Z,0.30
2023-03-28T22:53:31.942Z,0.30
2023-03-28T22:56:02.048Z,0.40
2023-03-28T22:58:31.741Z,0.40
2023-03-28T23:01:01.440Z,0.30
2023-03-28T23:03:31.343Z,0.20
2023-03-28T23:06:06.327Z,0.20
2023-03-28T23:08:35.766Z,0.10
2023-03-28T23:11:05.195Z,0.10
2023-03-28T23:13:34.720Z,0.10
2023-03-28T23:16:04.255Z,0.10
2023-03-28T23:18:33.999Z,0.10
2023-03-28T23:21:05.066Z,0.10
2023-03-28T23:23:36.138Z,-0.10
2023-03-28T23:26:06.609Z,0.00
2023-03-28T23:28:36.151Z,0.00
2023-03-28T23:31:05.739Z,-0.10
2023-03-28T23:33:35.180Z,-0.10
2023-03-28T23:36:07.145Z,-0.10
2023-03-28T23:38:36.351Z,-0.10
2023-03-28T23:41:06.788Z,-0.10
2023-03-28T23:43:36.003Z,-0.20
2023-03-28T23:46:05.872Z,-0.20
2023-03-28T23:48:37.422Z,-0.20
2023-03-28T23:51:09.382Z,-0.30
2023-03-28T23:53:38.758Z,-0.30
2023-03-28T23:56:10.068Z,-0.30
2023-03-28T23:58:39.304Z,-0.30
